Time;durP1;ratioP1;P1;durP2;ratioP2;P2;SDS_P1;SDS_P2;PMS_P1;PMS_P2;Temp;Humidity;BMP_temperature;BMP_pressure;BME280_temperature;BME280_humidity;BME280_pressure;Samples;Min_cycle;Max_cycle;Signal;HPM_P1;HPM_P2
2023/04/13 00:02:38;;;;;;;10.60;8.50;;;;;;;3.41;91.33;95555.80;108360;1279;22793;-86
2023/04/13 00:05:32;;;;;;;;;;;;;;;;;;;;;
2023/04/13 00:08:46;;;;;;;10.90;9.00;;;;;;;3.31;90.94;95540.84;108648;1276;22560;-87
2023/04/13 00:11:56;;;;;;;11.20;8.30;;;;;;;3.26;90.93;95534.83;109439;1270;22672;-87
2023/04/13 00:14:49;;;;;;;12.50;8.70;;;;;;;3.25;91.30;95532.14;109544;1270;24030;-86
2023/04/13 00:17:52;;;;;;;13.80;8.80;;;;;;;3.22;91.60;95524.99;108770;1277;22564;-87
2023/04/13 00:20:48;;;;;;;;;;;;;;;;;;;;;
2023/04/13 00:23:52;;;;;;;11.40;8.00;;;;;;;3.12;91.02;95528.70;109322;1250;22566;-87
2023/04/13 00:26:34;;;;;;;10.00;7.50;;;;;;;3.06;91.00;95527.41;109111;1270;22508;-86
2023/04/13 00:29:15;;;;;;;11.80;8.30;;;;;;;3.06;91.44;95524.20;109231;1258;101856;-86
2023/04/13 00:32:14;;;;;;;10.40;8.00;;;;;;;3.06;91.35;95528.09;109297;1270;22544;-87
2023/04/13 00:41:48;;;;;;;11.80;6.80;;;;;;;2.87;90.89;95528.96;108689;1279;22530;-87
2023/04/13 00:45:05;;;;;;;7.40;5.90;;;;;;;2.83;90.96;95527.39;108957;1271;23117;-86
2023/04/13 00:48:27;;;;;;;;;;;;;;;;;;;;;
2023/04/13 00:51:06;;;;;;;8.70;5.60;;;;;;;2.91;92.06;95523.21;106725;1265;3381113;-86
2023/04/13 00:53:53;;;;;;;11.30;7.10;;;;;;;2.98;92.38;95523.36;109254;1271;22507;-86
2023/04/13 00:56:30;;;;;;;9.60;6.90;;;;;;;3.04;92.15;95525.30;109169;1271;22511;-86
2023/04/13 00:59:11;;;;;;;10.80;7.00;;;;;;;3.04;92.01;95518.87;105080;1263;5294601;-87
2023/04/13 01:01:49;;;;;;;11.80;8.20;;;;;;;3.03;92.01;95518.55;109270;1267;22555;-86
2023/04/13 01:04:40;;;;;;;10.60;7.20;;;;;;;3.00;92.32;95514.46;109239;1268;22504;-86
2023/04/13 01:07:36;;;;;;;10.50;7.30;;;;;;;2.97;92.54;95513.36;109266;1271;22527;-87
2023/04/13 01:10:32;;;;;;;10.90;6.80;;;;;;;2.96;92.71;95522.41;107888;1269;1798278;-87
2023/04/13 01:13:40;;;;;;;8.40;6.10;;;;;;;2.93;92.51;95525.84;108781;1270;22546;-86
2023/04/13 01:16:39;;;;;;;;;;;;;;;;;;;;;
2023/04/13 01:19:29;;;;;;;;;;;;;;;2.82;91.78;95542.02;104677;1269;5419953;-86
2023/04/13 01:22:19;;;;;;;9.50;6.60;;;;;;;2.84;92.70;95540.36;108783;1277;23374;-86
2023/04/13 01:25:33;;;;;;;9.30;6.00;;;;;;;2.91;92.69;95540.13;109010;1271;22534;-87
2023/04/13 01:28:09;;;;;;;8.60;6.20;;;;;;;2.85;92.17;95542.89;109239;1268;25213;-87
2023/04/13 01:31:10;;;;;;;;;;;;;;;;;;;;;
2023/04/13 01:33:47;;;;;;;9.10;6.20;;;;;;;2.86;92.47;95550.53;109225;1264;24914;-86
2023/04/13 01:36:38;;;;;;;8.80;6.20;;;;;;;2.87;92.49;95551.38;109255;1265;22559;-86
2023/04/13 01:39:30;;;;;;;9.50;6.60;;;;;;;2.86;92.30;95558.02;108736;1271;5374711;-87
2023/04/13 01:42:16;;;;;;;8.70;6.10;;;;;;;2.88;92.61;95556.98;109196;1265;22518;-87
2023/04/13 01:45:04;;;;;;;8.50;5.90;;;;;;;2.93;93.07;95549.13;109182;1271;22555;-86
2023/04/13 01:48:20;;;;;;;;;;;;;;;;;;;;;
2023/04/13 01:55:15;;;;;;;7.40;5.30;;;;;;;3.28;93.55;95536.96;108427;1271;22570;-87
2023/04/13 01:58:28;;;;;;;10.90;6.60;;;;;;;3.31;93.56;95533.40;108514;1277;23827;-87
2023/04/13 02:04:50;;;;;;;9.70;5.90;;;;;;;3.42;93.71;95527.77;109114;1268;22533;-86
2023/04/13 02:08:18;;;;;;;;;;;;;;;;;;;;;
2023/04/13 02:11:34;;;;;;;;;;;;;;;;;;;;;
2023/04/13 02:14:32;;;;;;;7.50;5.40;;;;;;;3.65;93.61;95528.65;109381;1266;23236;-87
2023/04/13 02:17:53;;;;;;;;;;;;;;;;;;;;;
2023/04/13 02:21:05;;;;;;;;;;;;;;;;;;;;;
2023/04/13 02:28:10;;;;;;;;;;;;;;;;;;;;;
2023/04/13 02:31:23;;;;;;;8.90;6.20;;;;;;;3.95;91.60;95532.14;107232;1277;1782827;-87
2023/04/13 02:34:36;;;;;;;9.00;6.60;;;;;;;3.91;91.47;95534.16;108723;1270;22569;-87
2023/04/13 02:37:38;;;;;;;9.30;6.30;;;;;;;3.88;91.21;95532.65;108518;1276;22569;-88
2023/04/13 02:40:58;;;;;;;10.00;6.10;;;;;;;3.85;90.99;95536.84;107158;1267;2297391;-88
2023/04/13 02:44:33;;;;;;;8.10;5.50;;;;;;;3.83;90.92;95537.11;108976;1276;23223;-87
2023/04/13 02:51:17;;;;;;;;;;;;;;;;;;;;;
2023/04/13 02:54:53;;;;;;;7.70;4.60;;;;;;;3.67;90.90;95538.67;108669;1277;23869;-88
2023/04/13 03:08:26;;;;;;;11.20;6.50;;;;;;;3.41;91.38;95537.73;108703;1278;24291;-87
2023/04/13 03:18:48;;;;;;;9.60;4.30;;;;;;;3.85;91.11;95542.24;108432;1281;22540;-87
2023/04/13 03:22:26;;;;;;;;;;;;;;;;;;;;;
2023/04/13 03:25:41;;;;;;;;;;;;;;;;;;;;;
2023/04/13 03:29:04;;;;;;;;;;;;;;;;;;;;;
2023/04/13 03:43:46;;;;;;;;;;;;;;;;;;;;;
2023/04/13 04:27:25;;;;;;;6.00;3.90;;;;;;;5.42;85.41;95535.83;106171;1306;557683;-88
2023/04/13 04:37:48;;;;;;;5.40;3.70;;;;;;;5.73;83.61;95532.16;108247;1278;24221;-89
2023/04/13 04:41:08;;;;;;;;;;;;;;;;;;;;;
2023/04/13 04:44:28;;;;;;;;;;;;;;;;;;;;;
2023/04/13 04:47:52;;;;;;;;;;;;;;;;;;;;;
2023/04/13 04:54:37;;;;;;;5.20;3.70;;;;;;;6.72;80.41;95531.35;105634;1270;4480926;-88
2023/04/13 04:57:44;;;;;;;6.80;4.20;;;;;;;6.85;79.82;95531.42;109070;1274;25101;-89
2023/04/13 05:04:22;;;;;;;;;;;;;;;;;;;;;
2023/04/13 05:07:26;;;;;;;4.90;3.70;;;;;;;7.86;78.26;95530.06;108556;1278;22607;-89
2023/04/13 05:10:34;;;;;;;;;;;;;;;;;;;;;
2023/04/13 05:13:52;;;;;;;5.20;3.30;;;;;;;8.59;76.71;95531.74;107161;1272;1631324;-90
2023/04/13 05:17:09;;;;;;;;;;;;;;;;;;;;;
2023/04/13 05:20:06;;;;;;;;;;;;;;;8.82;75.66;95533.23;108529;1279;22531;-90
2023/04/13 05:23:24;;;;;;;5.30;3.50;;;;;;;8.98;74.90;95536.48;107177;1270;1868345;-90
2023/04/13 05:26:17;;;;;;;4.70;2.90;;;;;;;8.95;73.82;95539.50;108424;1279;22526;-89
2023/04/13 05:32:23;;;;;;;4.60;3.70;;;;;;;8.85;72.53;95537.72;109005;1267;22562;-90
2023/04/13 05:35:26;;;;;;;5.10;3.70;;;;;;;8.92;71.69;95533.20;104893;1269;5275718;-89
2023/04/13 05:38:22;;;;;;;6.40;3.70;;;;;;;8.95;71.59;95537.43;108789;1277;22578;-90
2023/04/13 05:41:02;;;;;;;5.30;3.50;;;;;;;9.14;71.56;95533.00;108887;1274;22540;-90
2023/04/13 05:43:45;;;;;;;4.90;3.40;;;;;;;9.27;70.61;95537.39;105039;1269;5284657;-90
2023/04/13 05:46:44;;;;;;;4.80;3.30;;;;;;;9.23;70.36;95536.14;109042;1274;22618;-89
2023/04/13 05:53:14;;;;;;;;;;;;;;;;;;;;;
2023/04/13 05:56:24;;;;;;;4.50;3.40;;;;;;;8.89;69.73;95546.79;107965;1283;23274;-89
2023/04/13 05:59:40;;;;;;;5.00;3.30;;;;;;;8.75;70.13;95543.89;108222;1280;22719;-90
2023/04/13 06:03:06;;;;;;;;;;;;;;;;;;;;;
2023/04/13 06:06:04;;;;;;;6.30;3.60;;;;;;;8.66;70.47;95541.20;107899;1285;22585;-90
2023/04/13 06:12:53;;;;;;;;;;;;;;;;;;;;;
2023/04/13 06:19:24;;;;;;;4.10;2.90;;;;;;;8.68;69.93;95542.69;108484;1280;23291;-90
2023/04/13 06:22:48;;;;;;;;;;;;;;;;;;;;;
2023/04/13 06:26:18;;;;;;;4.30;3.00;;;;;;;8.65;69.84;95545.48;107497;1268;1898922;-89
2023/04/13 06:29:39;;;;;;;7.40;3.10;;;;;;;8.72;69.53;95545.84;108884;1267;22517;-89
2023/04/13 06:32:28;;;;;;;5.40;2.30;;;;;;;9.09;69.28;95550.44;109003;1269;22528;-90
2023/04/13 06:39:36;;;;;;;6.40;2.90;;;;;;;10.00;66.23;95541.16;108532;1280;23936;-88
2023/04/13 06:42:38;;;;;;;2.90;2.40;;;;;;;9.73;65.39;95548.36;108115;1277;23500;-89
2023/04/13 06:46:21;;;;;;;;;;;;;;;;;;;;;
2023/04/13 06:53:21;;;;;;;4.40;2.50;;;;;;;9.47;65.64;95554.60;108106;1287;22560;-89
2023/04/13 06:56:10;;;;;;;4.30;2.90;;;;;;;9.46;66.09;95546.16;104595;1274;5290351;-90
2023/04/13 06:59:35;;;;;;;5.70;2.70;;;;;;;9.56;65.82;95550.11;108641;1279;23260;-89
2023/04/13 07:06:31;;;;;;;;;;;;;;;;;;;;;
2023/04/13 07:10:03;;;;;;;;;;;;;;;;;;;;;
2023/04/13 07:13:39;;;;;;;;;;;;;;;;;;;;;
2023/04/13 07:16:48;;;;;;;3.10;1.90;;;;;;;10.55;62.86;95546.00;103962;1293;4602143;-90
2023/04/13 07:19:45;;;;;;;4.40;2.70;;;;;;;10.48;62.29;95541.77;107728;1292;22706;-90
2023/04/13 07:22:42;;;;;;;2.90;2.50;;;;;;;10.39;61.87;95544.93;107894;1283;22608;-89
2023/04/13 07:25:34;;;;;;;3.20;2.20;;;;;;;10.33;61.82;95547.33;107611;1287;67509;-90
2023/04/13 07:28:12;;;;;;;4.50;2.80;;;;;;;10.31;62.17;95549.25;108081;1284;22567;-90
2023/04/13 07:31:36;;;;;;;5.10;2.70;;;;;;;10.31;62.73;95549.47;108253;1280;22526;-90
2023/04/13 07:34:59;;;;;;;;;;;;;;;;;;;;;
2023/04/13 07:41:58;;;;;;;;;;;;;;;;;;;;;
2023/04/13 07:45:20;;;;;;;3.20;2.60;;;;;;;10.33;62.09;95548.77;108908;1275;24218;-90
2023/04/13 07:51:58;;;;;;;;;;;;;;;;;;;;;
2023/04/13 07:55:08;;;;;;;10.00;5.30;;;;;;;10.43;61.59;95555.16;108366;1278;22543;-90
2023/04/13 07:58:40;;;;;;;;;;;;;;;;;;;;;
2023/04/13 08:01:54;;;;;;;5.80;3.10;;;;;;;10.38;60.82;95560.79;107703;1286;23925;-89
2023/04/13 08:04:57;;;;;;;4.00;2.30;;;;;;;10.36;61.14;95564.70;107945;1281;25316;-90
2023/04/13 08:08:29;;;;;;;4.90;2.30;;;;;;;10.40;60.57;95561.48;108021;1289;22562;-90
2023/04/13 08:11:18;;;;;;;4.10;1.90;;;;;;;10.41;59.89;95564.36;107852;1286;25142;-90
2023/04/13 08:14:26;;;;;;;;;;;;;;;;;;;;;
2023/04/13 08:17:36;;;;;;;4.10;1.70;;;;;;;10.41;58.81;95567.59;102259;1294;6483771;-91
2023/04/13 08:21:02;;;;;;;3.70;2.30;;;;;;;10.41;59.02;95571.94;107162;1295;24246;-90
2023/04/13 08:24:10;;;;;;;3.00;2.10;;;;;;;10.47;58.84;95570.91;107262;1294;22567;-89
2023/04/13 08:27:18;;;;;;;2.90;2.30;;;;;;;10.47;58.43;95564.98;104491;1275;5460010;-90
2023/04/13 08:30:31;;;;;;;;;;;;;;;;;;;;;
2023/04/13 08:37:14;;;;;;;3.70;2.00;;;;;;;10.61;59.05;95572.73;105942;1277;3612051;-90
2023/04/13 08:40:25;;;;;;;4.30;2.60;;;;;;;10.66;58.71;95573.17;108708;1278;22618;-90
2023/04/13 08:43:07;;;;;;;7.30;2.70;;;;;;;10.67;58.74;95573.09;108678;1279;22534;-90
2023/04/13 08:45:47;;;;;;;;;;;;;;;10.73;58.73;95575.35;107520;1272;1762043;-91
2023/04/13 08:48:44;;;;;;;;;;;;;;;;;;;;;
2023/04/13 08:51:52;;;;;;;4.50;2.80;;;;;;;10.81;57.78;95573.91;108541;1278;22605;-90
2023/04/13 08:55:07;;;;;;;4.60;2.60;;;;;;;10.86;57.72;95569.77;108315;1282;23341;-91
2023/04/13 08:58:14;;;;;;;5.20;2.80;;;;;;;10.89;56.73;95571.05;104461;1278;5307035;-90
2023/04/13 09:04:49;;;;;;;4.00;2.70;;;;;;;10.98;56.38;95563.89;108571;1276;24297;-90
2023/04/13 09:07:33;;;;;;;5.30;3.10;;;;;;;11.00;57.23;95565.05;104310;1275;5563922;-90
2023/04/13 09:10:17;;;;;;;5.00;3.10;;;;;;;11.08;56.90;95567.77;108712;1272;22540;-90
2023/04/13 09:12:52;;;;;;;5.40;2.70;;;;;;;11.11;56.64;95565.88;108722;1278;22562;-90
2023/04/13 09:15:41;;;;;;;5.30;3.10;;;;;;;11.13;56.60;95565.81;108712;1274;22632;-90
2023/04/13 09:18:27;;;;;;;3.90;2.90;;;;;;;11.21;56.58;95565.66;108633;1277;69506;-90
2023/04/13 09:24:48;;;;;;;4.40;2.90;;;;;;;11.28;56.33;95565.13;108997;1274;22517;-90
2023/04/13 09:27:28;;;;;;;6.10;3.00;;;;;;;11.37;55.70;95564.73;105734;1269;4412416;-90
2023/04/13 09:30:29;;;;;;;4.30;2.60;;;;;;;11.43;55.95;95560.58;109052;1271;25955;-90
2023/04/13 09:33:30;;;;;;;;;;;;;;;;;;;;;
2023/04/13 09:36:31;;;;;;;6.10;2.80;;;;;;;11.89;55.59;95553.73;108743;1270;139833;-90
2023/04/13 09:42:22;;;;;;;;;;;;;;;;;;;;;
2023/04/13 09:45:27;;;;;;;4.50;3.10;;;;;;;12.59;54.54;95549.30;109051;1271;22533;-90
2023/04/13 09:48:15;;;;;;;4.80;3.10;;;;;;;12.80;53.38;95551.47;104953;1272;5409285;-90
2023/04/13 09:51:27;;;;;;;4.80;3.10;;;;;;;13.15;53.78;95549.38;108976;1274;24250;-89
2023/04/13 09:54:00;;;;;;;3.90;2.80;;;;;;;13.55;53.20;95543.86;109037;1267;22542;-89
2023/04/13 09:56:51;;;;;;;;;;;;;;;;;;;;;
2023/04/13 09:59:37;;;;;;;4.80;3.00;;;;;;;14.52;52.80;95540.92;108981;1274;22540;-89
2023/04/13 10:02:25;;;;;;;4.20;2.80;;;;;;;14.80;52.15;95544.70;109075;1274;22570;-89
2023/04/13 10:05:43;;;;;;;;;;;;;;;;;;;;;
2023/04/13 10:08:39;;;;;;;;;;;;;;;;;;;;;
2023/04/13 10:15:09;;;;;;;2.90;2.10;;;;;;;15.61;49.50;95538.96;109017;1274;22520;-88
2023/04/13 10:18:15;;;;;;;3.60;2.40;;;;;;;15.87;48.91;95536.23;107124;1279;1978574;-88
2023/04/13 10:21:02;;;;;;;;;;;;;;;;;;;;;
2023/04/13 10:23:37;;;;;;;4.70;3.00;;;;;;;15.81;48.90;95532.77;109043;1264;22542;-88
2023/04/13 10:26:43;;;;;;;6.20;2.70;;;;;;;15.95;48.71;95531.13;109089;1274;22549;-87
2023/04/13 10:29:34;;;;;;;3.70;2.30;;;;;;;15.92;47.88;95528.66;108960;1275;22524;-87
2023/04/13 10:32:28;;;;;;;5.80;2.20;;;;;;;15.99;46.54;95534.53;109025;1274;23670;-86
2023/04/13 10:35:09;;;;;;;2.90;1.80;;;;;;;15.99;46.84;95532.63;109053;1274;24311;-86
2023/04/13 10:37:48;;;;;;;3.40;2.00;;;;;;;15.89;45.41;95532.55;107517;1272;2045781;-88
2023/04/13 10:40:26;;;;;;;5.10;2.30;;;;;;;15.58;45.71;95537.42;109063;1271;22764;-86
2023/04/13 10:42:54;;;;;;;2.30;1.90;;;;;;;15.38;46.29;95535.82;109078;1273;22523;-87
2023/04/13 10:45:25;;;;;;;3.90;2.30;;;;;;;15.17;45.64;95530.95;109027;1252;22696;-87
2023/04/13 10:47:57;;;;;;;5.90;2.50;;;;;;;14.87;45.76;95535.70;107676;1271;1795308;-87
2023/04/13 10:50:28;;;;;;;3.20;2.20;;;;;;;14.72;46.48;95532.38;109087;1268;23119;-86
2023/04/13 10:53:11;;;;;;;2.20;1.60;;;;;;;14.90;48.17;95529.17;109054;1274;22558;-87
2023/04/13 10:55:42;;;;;;;3.70;2.00;;;;;;;15.30;48.10;95524.89;109116;1268;25573;-87
2023/04/13 10:58:20;;;;;;;4.00;2.00;;;;;;;15.72;47.55;95523.20;108984;1274;89130;-86
2023/04/13 11:00:52;;;;;;;4.30;2.10;;;;;;;16.03;47.91;95521.73;109068;1266;22590;-86
2023/04/13 11:03:29;;;;;;;2.40;2.00;;;;;;;15.94;45.80;95518.79;109082;1272;22530;-86
2023/04/13 11:06:08;;;;;;;2.40;1.80;;;;;;;15.46;45.09;95524.16;109067;1268;22607;-86
2023/04/13 11:08:38;;;;;;;2.90;1.70;;;;;;;15.12;45.58;95522.19;108997;1271;63221;-87
2023/04/13 11:11:07;;;;;;;4.80;2.30;;;;;;;15.01;46.73;95527.68;109038;1271;22556;-86
2023/04/13 11:13:45;;;;;;;3.40;2.00;;;;;;;14.96;46.53;95524.48;109112;1274;24199;-86
2023/04/13 11:16:20;;;;;;;;;;;;;;;15.03;47.60;95521.89;109089;1274;23723;-86
2023/04/13 11:19:01;;;;;;;3.20;2.10;;;;;;;15.11;46.27;95521.03;107688;1267;1848104;-85
2023/04/13 11:21:34;;;;;;;3.60;2.40;;;;;;;15.06;46.45;95513.68;109081;1254;22518;-86
2023/04/13 11:24:09;;;;;;;4.60;2.20;;;;;;;14.99;45.87;95508.94;109069;1271;22566;-86
2023/04/13 11:26:48;;;;;;;5.00;2.60;;;;;;;15.02;46.90;95506.14;109133;1273;22617;-87
2023/04/13 11:29:31;;;;;;;6.40;2.20;;;;;;;15.23;47.62;95502.95;107727;1268;1786719;-87
2023/04/13 11:32:02;;;;;;;3.20;2.10;;;;;;;15.31;47.37;95505.10;109069;1274;22549;-85
2023/04/13 11:34:32;;;;;;;3.10;2.00;;;;;;;15.30;46.52;95506.27;109096;1268;24226;-86
2023/04/13 11:37:04;;;;;;;2.90;2.20;;;;;;;15.23;46.45;95510.47;109071;1267;22520;-85
2023/04/13 11:39:37;;;;;;;4.80;2.00;;;;;;;15.22;46.19;95511.06;109094;1274;22526;-84
2023/04/13 11:42:12;;;;;;;3.10;2.00;;;;;;;15.30;46.61;95510.70;109082;1267;22530;-86
2023/04/13 11:44:47;;;;;;;3.20;2.00;;;;;;;15.65;47.18;95511.08;109050;1271;22665;-86
2023/04/13 11:47:26;;;;;;;3.30;2.00;;;;;;;15.94;46.80;95508.27;107704;1263;1776683;-84
2023/04/13 11:49:56;;;;;;;3.20;2.00;;;;;;;16.00;45.29;95503.09;109045;1266;22633;-85
2023/04/13 11:52:49;;;;;;;2.80;1.90;;;;;;;15.88;45.78;95488.67;109065;1267;25324;-86
2023/04/13 11:55:47;;;;;;;2.60;1.70;;;;;;;16.07;47.57;95482.28;109094;1268;22519;-87
2023/04/13 11:58:41;;;;;;;2.90;1.30;;;;;;;16.22;45.95;95474.33;108995;1274;110682;-87
2023/04/13 12:01:15;;;;;;;3.50;1.50;;;;;;;15.98;43.88;95478.90;109033;1271;22525;-85
2023/04/13 12:04:25;;;;;;;;;;;;;;;;;;;;;
2023/04/13 12:06:59;;;;;;;3.40;1.90;;;;;;;15.66;44.30;95477.48;108981;1271;22558;-86
2023/04/13 12:09:28;;;;;;;4.40;1.90;;;;;;;15.52;43.73;95485.02;108997;1274;44869;-85
2023/04/13 12:12:04;;;;;;;2.40;1.50;;;;;;;15.41;44.48;95485.92;109023;1274;22588;-85
2023/04/13 12:14:59;;;;;;;4.00;2.20;;;;;;;15.47;45.11;95483.44;109092;1274;22558;-86
2023/04/13 12:18:00;;;;;;;3.90;1.60;;;;;;;15.91;45.72;95474.12;108021;1268;1801495;-86
2023/04/13 12:20:36;;;;;;;2.60;1.50;;;;;;;16.06;44.21;95477.21;109109;1273;26435;-85
2023/04/13 12:23:15;;;;;;;3.40;1.80;;;;;;;15.87;43.01;95472.55;109164;1274;22585;-85
2023/04/13 12:25:55;;;;;;;2.00;1.30;;;;;;;15.82;43.57;95471.04;109002;1274;25796;-85
2023/04/13 12:28:48;;;;;;;2.50;1.70;;;;;;;15.74;43.35;95469.74;107703;1274;1793301;-85
2023/04/13 12:31:21;;;;;;;4.20;1.80;;;;;;;15.90;44.16;95470.27;109075;1274;22625;-85
2023/04/13 12:34:01;;;;;;;2.10;1.40;;;;;;;16.19;45.28;95466.61;109044;1274;25411;-85
2023/04/13 12:36:35;;;;;;;3.80;1.80;;;;;;;16.43;44.18;95464.34;109042;1275;22562;-85
2023/04/13 12:39:12;;;;;;;2.40;1.80;;;;;;;16.33;44.31;95467.83;109012;1270;88022;-84
2023/04/13 12:41:53;;;;;;;3.60;1.40;;;;;;;16.22;43.23;95466.79;109066;1273;22531;-84
2023/04/13 12:44:41;;;;;;;1.90;1.40;;;;;;;16.09;43.35;95463.90;109059;1275;24978;-85
2023/04/13 12:47:27;;;;;;;3.60;2.20;;;;;;;15.95;43.63;95463.08;109069;1275;22564;-85
2023/04/13 12:50:07;;;;;;;3.30;2.00;;;;;;;15.74;43.63;95463.70;109051;1274;22616;-86
2023/04/13 12:52:41;;;;;;;3.30;1.90;;;;;;;15.79;44.64;95460.48;109111;1267;23805;-85
2023/04/13 12:55:12;;;;;;;2.40;1.70;;;;;;;15.77;43.65;95459.52;109023;1271;22591;-86
2023/04/13 12:57:42;;;;;;;2.60;1.60;;;;;;;15.53;43.90;95452.41;109039;1274;75250;-85
2023/04/13 13:00:27;;;;;;;2.60;1.80;;;;;;;15.33;43.88;95451.20;109073;1271;22502;-86
2023/04/13 13:03:06;;;;;;;2.90;1.80;;;;;;;15.20;44.46;95447.56;109089;1271;22507;-86
2023/04/13 13:05:35;;;;;;;;;;;;;;;15.18;44.22;95451.19;109075;1274;23865;-85
2023/04/13 13:08:06;;;;;;;1.60;1.40;;;;;;;15.03;43.63;95457.38;109034;1268;59968;-85
2023/04/13 13:10:35;;;;;;;2.70;1.90;;;;;;;14.92;44.35;95460.77;109072;1271;24003;-86
2023/04/13 13:13:10;;;;;;;4.00;2.10;;;;;;;14.84;45.13;95461.21;109084;1271;22556;-86
2023/04/13 13:15:40;;;;;;;3.80;2.20;;;;;;;14.80;45.06;95460.16;109069;1275;22567;-86
2023/04/13 13:18:10;;;;;;;3.90;2.20;;;;;;;14.70;44.77;95469.52;107477;1275;2047667;-85
2023/04/13 13:20:40;;;;;;;4.00;2.50;;;;;;;14.59;45.65;95471.45;109069;1274;22812;-86
2023/04/13 13:23:11;;;;;;;6.00;2.40;;;;;;;14.47;45.90;95472.80;109074;1275;24297;-85
2023/04/13 13:25:41;;;;;;;;;;;;;;;14.35;45.70;95473.13;109163;1273;22494;-86
2023/04/13 13:28:13;;;;;;;5.50;2.80;;;;;;;14.27;46.57;95472.64;108949;1272;119882;-86
2023/04/13 13:30:57;;;;;;;4.30;2.50;;;;;;;14.21;47.01;95471.16;109046;1274;22581;-86
2023/04/13 13:33:25;;;;;;;5.40;2.50;;;;;;;14.15;47.09;95466.36;109121;1274;22574;-86
2023/04/13 13:35:56;;;;;;;4.70;2.10;;;;;;;14.14;47.82;95470.14;109033;1275;22629;-86
2023/04/13 13:38:26;;;;;;;3.90;2.10;;;;;;;14.21;48.03;95469.56;108995;1275;59970;-86
2023/04/13 13:40:54;;;;;;;4.20;2.30;;;;;;;14.25;48.08;95466.77;109081;1274;22520;-86
2023/04/13 13:43:23;;;;;;;4.60;2.40;;;;;;;14.28;48.47;95468.09;109088;1274;22526;-86
2023/04/13 13:45:54;;;;;;;3.70;2.40;;;;;;;14.27;48.44;95466.47;109096;1271;22517;-87
2023/04/13 13:48:25;;;;;;;4.80;2.80;;;;;;;14.23;48.75;95469.98;109041;1271;61077;-87
2023/04/13 13:51:07;;;;;;;4.40;2.60;;;;;;;14.17;48.51;95467.96;109060;1256;22564;-86
2023/04/13 13:53:37;;;;;;;4.30;2.50;;;;;;;14.11;48.46;95474.91;109082;1274;22531;-88
2023/04/13 13:56:07;;;;;;;5.00;2.40;;;;;;;14.04;48.72;95474.64;109012;1274;22610;-87
2023/04/13 13:58:36;;;;;;;5.90;2.20;;;;;;;14.02;49.47;95474.06;107551;1275;2039876;-87
2023/04/13 14:01:10;;;;;;;4.40;2.50;;;;;;;14.01;49.49;95472.73;109079;1251;24215;-87
2023/04/13 14:03:38;;;;;;;3.40;2.20;;;;;;;13.99;49.48;95474.63;109061;1271;24225;-87
2023/04/13 14:06:11;;;;;;;3.90;2.50;;;;;;;13.96;49.73;95475.31;109153;1262;22515;-88
2023/04/13 14:08:40;;;;;;;3.20;2.40;;;;;;;13.94;50.12;95476.59;109260;1272;53411;-88
2023/04/13 14:11:11;;;;;;;3.30;2.50;;;;;;;13.90;50.35;95476.30;109060;1275;22600;-88
2023/04/13 14:13:39;;;;;;;4.30;2.50;;;;;;;13.88;50.84;95475.29;109083;1267;22558;-88
2023/04/13 14:16:09;;;;;;;4.00;2.80;;;;;;;13.85;50.91;95481.59;109065;1274;22567;-88
2023/04/13 14:22:15;;;;;;;6.10;2.70;;;;;;;13.80;51.32;95482.50;108591;1275;25965;-88
2023/04/13 14:24:49;;;;;;;5.70;2.60;;;;;;;13.80;51.57;95485.30;109088;1274;22533;-88
2023/04/13 14:27:18;;;;;;;2.90;2.50;;;;;;;13.79;51.60;95490.86;109097;1274;22658;-88
2023/04/13 14:29:49;;;;;;;3.30;2.40;;;;;;;13.77;51.80;95498.81;108996;1266;93388;-88
2023/04/13 14:32:20;;;;;;;3.40;2.70;;;;;;;13.76;51.70;95501.20;109051;1267;22709;-88
2023/04/13 14:34:48;;;;;;;5.30;2.50;;;;;;;13.75;51.79;95500.09;109060;1268;25432;-88
2023/04/13 14:37:20;;;;;;;3.00;2.50;;;;;;;13.74;52.11;95491.10;109014;1270;25435;-88
2023/04/13 14:39:50;;;;;;;6.30;3.40;;;;;;;13.74;52.47;95492.47;109095;1274;71848;-89
2023/04/13 14:42:23;;;;;;;6.90;3.80;;;;;;;13.75;53.07;95493.47;109116;1274;22612;-89
2023/04/13 14:44:51;;;;;;;5.90;3.90;;;;;;;13.76;53.69;95490.08;109225;1274;22573;-88
2023/04/13 14:47:20;;;;;;;6.00;3.50;;;;;;;13.78;53.69;95490.00;109089;1267;22536;-89
2023/04/13 14:49:51;;;;;;;5.60;2.80;;;;;;;13.82;54.04;95493.80;109055;1274;53444;-89
2023/04/13 14:52:22;;;;;;;5.40;3.10;;;;;;;13.85;54.31;95493.71;109081;1275;22581;-89
2023/04/13 14:54:55;;;;;;;6.00;3.60;;;;;;;13.87;54.10;95492.56;109078;1267;22517;-89
2023/04/13 14:57:26;;;;;;;6.30;3.10;;;;;;;13.88;53.98;95491.75;109055;1274;22559;-89
2023/04/13 14:59:56;;;;;;;5.00;2.90;;;;;;;13.87;54.12;95497.11;107740;1274;1835643;-89
2023/04/13 15:02:27;;;;;;;5.00;3.20;;;;;;;13.85;53.84;95496.81;109064;1274;25407;-89
2023/04/13 15:04:57;;;;;;;5.30;2.80;;;;;;;13.81;54.33;95498.20;109063;1274;22522;-88
2023/04/13 15:07:28;;;;;;;5.00;3.10;;;;;;;13.78;54.51;95499.42;109096;1274;22709;-89
2023/04/13 15:09:57;;;;;;;30.90;27.80;;;;;;;13.74;55.22;95504.39;109026;1274;78151;-89
2023/04/13 15:12:26;;;;;;;11.80;10.60;;;;;;;13.61;55.82;95508.67;109095;1273;25390;-89
2023/04/13 15:14:57;;;;;;;5.20;3.50;;;;;;;13.47;56.55;95512.39;109040;1274;22537;-89
2023/04/13 15:17:28;;;;;;;5.00;2.80;;;;;;;13.37;56.54;95517.16;109065;1274;22715;-89
2023/04/13 15:19:59;;;;;;;3.40;2.40;;;;;;;13.28;56.07;95520.73;109012;1274;44472;-89
2023/04/13 15:22:29;;;;;;;8.60;3.70;;;;;;;13.21;56.10;95526.77;109109;1274;22529;-90
2023/04/13 15:24:59;;;;;;;6.20;3.00;;;;;;;13.14;56.45;95525.90;109076;1267;25687;-89
2023/04/13 15:27:28;;;;;;;4.10;2.40;;;;;;;13.09;55.81;95527.48;109087;1273;25375;-89
2023/04/13 15:30:01;;;;;;;4.30;2.50;;;;;;;13.10;55.46;95527.51;109038;1274;64947;-89
2023/04/13 15:32:32;;;;;;;4.70;2.50;;;;;;;13.14;54.96;95530.53;109066;1270;22561;-89
2023/04/13 15:35:01;;;;;;;4.10;2.60;;;;;;;13.16;54.88;95526.35;109071;1274;22936;-89
2023/04/13 15:37:30;;;;;;;3.60;2.50;;;;;;;13.18;54.94;95527.39;109078;1270;25650;-90
2023/04/13 15:39:59;;;;;;;3.90;2.90;;;;;;;13.21;55.14;95524.45;107488;1267;2099671;-89
2023/04/13 15:42:28;;;;;;;5.80;3.10;;;;;;;13.22;55.23;95522.05;109070;1274;26438;-90
2023/04/13 15:44:56;;;;;;;7.60;3.50;;;;;;;13.23;55.39;95521.33;109114;1274;22533;-89
2023/04/13 15:47:26;;;;;;;5.30;3.10;;;;;;;13.23;55.72;95521.70;109064;1274;23500;-89
2023/04/13 15:49:59;;;;;;;4.60;2.80;;;;;;;13.23;56.36;95518.45;109054;1274;68005;-89
2023/04/13 15:52:31;;;;;;;6.90;3.90;;;;;;;13.23;57.34;95520.11;109035;1270;22564;-89
2023/04/13 15:55:02;;;;;;;8.60;7.40;;;;;;;13.20;58.54;95525.33;109068;1274;22657;-89
2023/04/13 15:57:32;;;;;;;10.40;9.40;;;;;;;13.06;59.42;95523.23;109122;1274;22521;-90
2023/04/13 16:00:14;;;;;;;7.00;4.10;;;;;;;12.93;60.12;95523.39;108977;1274;25245;-90
2023/04/13 16:02:43;;;;;;;3.70;2.80;;;;;;;12.82;60.58;95524.27;109132;1267;22528;-91
2023/04/13 16:05:12;;;;;;;5.80;4.40;;;;;;;12.73;61.01;95529.30;109056;1270;22530;-91
2023/04/13 16:07:41;;;;;;;10.30;5.20;;;;;;;12.66;59.13;95529.02;109076;1274;24211;-92
2023/04/13 16:10:19;;;;;;;;;;;;;;;12.55;58.81;95528.70;109116;1274;22500;-90
2023/04/13 16:12:53;;;;;;;11.10;5.90;;;;;;;12.35;58.86;95531.75;109100;1274;24227;-90
2023/04/13 16:15:25;;;;;;;9.20;6.30;;;;;;;12.10;59.27;95527.79;109038;1270;25446;-90
2023/04/13 16:17:55;;;;;;;8.90;5.80;;;;;;;11.94;59.74;95525.84;109077;1267;72292;-90
2023/04/13 16:20:27;;;;;;;8.20;5.60;;;;;;;11.81;60.16;95539.73;109087;1273;23794;-91
2023/04/13 16:23:01;;;;;;;8.80;6.20;;;;;;;11.72;60.39;95545.08;109108;1274;22523;-91
2023/04/13 16:25:30;;;;;;;13.00;6.90;;;;;;;11.63;60.69;95543.02;109066;1267;22607;-90
2023/04/13 16:27:59;;;;;;;9.30;6.40;;;;;;;11.50;60.95;95543.59;109083;1274;54592;-90
2023/04/13 16:30:27;;;;;;;;;;;;;;;11.41;61.36;95545.98;108901;1274;239356;-90
2023/04/13 16:32:57;;;;;;;11.00;6.60;;;;;;;11.33;61.66;95552.90;109041;1271;22566;-90
2023/04/13 16:35:29;;;;;;;11.50;6.80;;;;;;;11.25;62.06;95548.23;109074;1274;22531;-90
2023/04/13 16:37:58;;;;;;;12.20;7.30;;;;;;;11.19;62.29;95556.04;109071;1265;55297;-91
2023/04/13 16:40:27;;;;;;;9.90;6.30;;;;;;;11.13;62.54;95555.63;109074;1269;22529;-90
2023/04/13 16:43:11;;;;;;;12.50;7.50;;;;;;;11.08;62.86;95555.40;109117;1274;22521;-90
2023/04/13 16:45:44;;;;;;;11.30;6.90;;;;;;;10.99;63.22;95558.88;109077;1268;22577;-90
2023/04/13 16:48:14;;;;;;;10.50;6.50;;;;;;;10.92;63.44;95556.56;109005;1267;111864;-90
2023/04/13 16:50:46;;;;;;;10.00;6.20;;;;;;;10.87;63.64;95566.38;109098;1270;22578;-89